createdAt,value
2022-08-07T00:04:15.411Z,3.28
2022-08-07T00:11:19.963Z,3.53
2022-08-07T00:18:32.416Z,2.95
2022-08-07T00:25:37.274Z,3.40
2022-08-07T00:32:39.453Z,2.60
2022-08-07T00:39:45.132Z,3.35
2022-08-07T00:46:47.337Z,3.00
2022-08-07T00:53:50.411Z,3.00
2022-08-07T01:00:56.700Z,3.70
2022-08-07T01:07:58.427Z,3.35
2022-08-07T01:15:03.630Z,3.60
2022-08-07T01:22:08.692Z,3.38
2022-08-07T01:29:11.507Z,2.90
2022-08-07T01:36:13.418Z,3.03
2022-08-07T01:43:18.694Z,3.20
2022-08-07T01:50:22.714Z,3.25
2022-08-07T01:58:06.355Z,2.65
2022-08-07T02:05:43.194Z,2.95
2022-08-07T02:12:46.355Z,2.97
2022-08-07T02:20:05.846Z,2.70
2022-08-07T02:27:12.810Z,2.83
2022-08-07T02:34:17.414Z,2.80
2022-08-07T02:41:21.893Z,2.75
2022-08-07T02:48:23.835Z,2.70
2022-08-07T02:56:04.447Z,2.70
2022-08-07T03:02:54.242Z,2.50
2022-08-07T03:09:57.049Z,3.10
2022-08-07T03:16:59.007Z,2.78
2022-08-07T03:24:19.873Z,2.50
2022-08-07T03:31:26.263Z,2.60
2022-08-07T03:38:45.827Z,2.90
2022-08-07T03:45:49.035Z,2.50
2022-08-07T03:52:52.019Z,3.00
2022-08-07T04:00:02.729Z,3.35
2022-08-07T04:07:16.757Z,3.80
2022-08-07T04:14:37.750Z,3.85
2022-08-07T04:21:59.720Z,3.40
2022-08-07T04:29:03.983Z,6.47
2022-08-07T04:36:09.077Z,5.50
2022-08-07T04:43:11.273Z,3.50
2022-08-07T04:50:18.896Z,3.78
2022-08-07T04:58:16.042Z,3.45
2022-08-07T05:04:57.215Z,3.58
2022-08-07T05:19:10.815Z,2.50
2022-08-07T05:26:23.653Z,2.47
2022-08-07T05:33:27.540Z,2.70
2022-08-07T05:40:30.065Z,2.65
2022-08-07T05:47:38.706Z,2.17
2022-08-07T05:54:58.693Z,2.50
2022-08-07T06:02:05.912Z,2.47
2022-08-07T06:09:09.724Z,2.67
2022-08-07T06:16:13.672Z,2.47
2022-08-07T06:23:45.827Z,2.13
2022-08-07T06:30:42.611Z,2.20
2022-08-07T06:37:46.184Z,2.10
2022-08-07T06:44:50.885Z,2.20
2022-08-07T06:51:59.223Z,2.25
2022-08-07T07:00:11.707Z,2.30
2022-08-07T07:06:39.377Z,2.40
2022-08-07T07:14:01.779Z,2.22
2022-08-07T07:21:19.222Z,2.28
2022-08-07T07:28:29.618Z,2.50
2022-08-07T07:35:44.112Z,2.20
2022-08-07T07:42:57.859Z,2.25
2022-08-07T07:50:32.962Z,2.30
2022-08-07T07:57:51.655Z,2.08
2022-08-07T08:04:56.837Z,2.30
2022-08-07T08:12:05.200Z,2.40
2022-08-07T08:20:15.667Z,1.80
2022-08-07T08:26:52.689Z,1.83
2022-08-07T08:33:57.800Z,1.67
2022-08-07T08:41:08.413Z,1.75
2022-08-07T08:48:36.195Z,2.15
2022-08-07T08:55:55.606Z,2.53
2022-08-07T09:03:10.427Z,1.92
2022-08-07T09:10:19.394Z,1.95
2022-08-07T09:17:59.764Z,2.07
2022-08-07T09:25:17.278Z,2.00
2022-08-07T09:32:36.424Z,2.50
2022-08-07T09:39:55.212Z,1.80
2022-08-07T09:47:51.832Z,2.10
2022-08-07T09:54:30.339Z,1.95
2022-08-07T10:01:52.419Z,2.30
2022-08-07T10:09:02.600Z,2.47
2022-08-07T10:16:12.338Z,1.85
2022-08-07T10:30:19.415Z,1.83
2022-08-07T10:37:26.541Z,1.98
2022-08-07T10:44:50.172Z,1.80
2022-08-07T10:52:02.338Z,2.08
2022-08-07T10:59:30.247Z,2.40
2022-08-07T11:06:50.832Z,2.03
2022-08-07T11:14:45.668Z,1.90
2022-08-07T11:21:54.752Z,1.83
2022-08-07T11:29:40.563Z,2.20
2022-08-07T11:36:30.852Z,2.00
2022-08-07T11:43:54.384Z,2.08
2022-08-07T11:51:44.618Z,1.90
2022-08-07T11:59:01.713Z,3.28
2022-08-07T12:06:37.211Z,1.90
2022-08-07T12:13:47.430Z,2.10
2022-08-07T12:21:14.959Z,2.05
2022-08-07T12:28:34.668Z,1.90
2022-08-07T12:35:40.242Z,1.73
2022-08-07T12:42:52.683Z,1.90
2022-08-07T12:50:04.614Z,1.70
2022-08-07T12:57:09.711Z,1.70
2022-08-07T13:04:34.302Z,1.90
2022-08-07T13:12:01.972Z,1.80
2022-08-07T13:18:58.554Z,1.77
2022-08-07T13:26:06.167Z,2.78
2022-08-07T13:34:30.769Z,2.00
2022-08-07T13:40:58.290Z,1.45
2022-08-07T13:48:04.293Z,1.70
2022-08-07T13:55:10.937Z,1.80
2022-08-07T14:02:19.591Z,1.77
2022-08-07T14:10:02.987Z,1.70
2022-08-07T14:16:58.108Z,1.75
2022-08-07T14:24:03.657Z,1.70
2022-08-07T14:31:06.743Z,1.77
2022-08-07T14:38:09.711Z,1.75
2022-08-07T14:45:47.082Z,1.67
2022-08-07T14:52:53.387Z,1.52
2022-08-07T15:00:03.095Z,2.20
2022-08-07T15:07:17.526Z,2.08
2022-08-07T15:14:31.356Z,2.05
2022-08-07T15:21:45.167Z,2.17
2022-08-07T15:30:08.969Z,2.05
2022-08-07T15:37:03.181Z,1.98
2022-08-07T15:44:18.437Z,1.95
2022-08-07T15:59:16.530Z,2.20
2022-08-07T16:06:28.082Z,1.70
2022-08-07T16:13:58.754Z,2.05
2022-08-07T16:21:44.409Z,1.95
2022-08-07T16:30:07.034Z,1.85
2022-08-07T16:36:08.343Z,1.85
2022-08-07T16:44:04.077Z,3.10
2022-08-07T16:52:01.704Z,2.78
2022-08-07T16:59:15.016Z,2.10
2022-08-07T17:06:35.901Z,2.50
2022-08-07T17:14:17.943Z,2.50
2022-08-07T17:21:22.648Z,2.47
2022-08-07T17:28:31.036Z,2.88
2022-08-07T17:35:54.601Z,3.05
2022-08-07T17:43:19.017Z,2.60
2022-08-07T17:50:54.575Z,3.00
2022-08-07T17:58:04.163Z,2.85
2022-08-07T18:06:02.173Z,2.53
2022-08-07T18:13:15.366Z,2.40
2022-08-07T18:21:11.872Z,2.47
2022-08-07T18:28:07.160Z,1.55
2022-08-07T18:35:15.758Z,1.67
2022-08-07T18:42:27.877Z,1.77
2022-08-07T18:50:30.304Z,1.50
2022-08-07T18:57:30.184Z,1.60
2022-08-07T19:04:59.543Z,1.70
2022-08-07T19:12:06.332Z,1.70
2022-08-07T19:19:14.895Z,2.10
2022-08-07T19:26:24.008Z,2.25
2022-08-07T19:33:36.976Z,1.98
2022-08-07T19:40:49.672Z,1.83
2022-08-07T19:47:55.973Z,1.67
2022-08-07T19:54:59.860Z,1.75
2022-08-07T20:02:03.011Z,1.60
2022-08-07T20:09:07.802Z,1.80
2022-08-07T20:16:36.335Z,1.50
2022-08-07T20:30:49.313Z,1.65
2022-08-07T20:37:59.741Z,2.00
2022-08-07T20:45:33.052Z,1.95
2022-08-07T20:52:51.972Z,1.65
2022-08-07T21:00:08.102Z,1.90
2022-08-07T21:07:14.539Z,1.85
2022-08-07T21:14:32.668Z,1.90
2022-08-07T21:21:49.167Z,2.40
2022-08-07T21:29:15.661Z,2.00
2022-08-07T21:36:41.096Z,2.25
2022-08-07T21:44:04.474Z,2.25
2022-08-07T21:51:25.943Z,2.88
2022-08-07T21:58:30.336Z,2.60
2022-08-07T22:05:48.238Z,2.20
2022-08-07T22:12:53.592Z,2.50
2022-08-07T22:20:00.102Z,2.58
2022-08-07T22:27:12.959Z,2.17
2022-08-07T22:34:33.166Z,2.25
2022-08-07T22:42:04.094Z,2.40
2022-08-07T22:49:33.997Z,2.70
2022-08-07T22:56:47.845Z,2.17
2022-08-07T23:04:04.942Z,2.40
2022-08-07T23:11:27.830Z,3.75
2022-08-07T23:18:32.738Z,3.67
2022-08-07T23:25:35.721Z,3.53
2022-08-07T23:34:19.912Z,2.65
2022-08-07T23:40:30.481Z,2.42
2022-08-07T23:47:46.591Z,2.83
2022-08-07T23:54:55.643Z,3.00
